LGAVLGSA

Guest
Details From LGAV - Athens Intl Airport Elefterios Venizel
To LGSA - Khania Souda
Flight Number -
Tags generated
Created
Modified
Stats Distance 145 nm / 268 km
Max Altitude 17,800 ft / 5,425 m
Waypoints 3
Social Downloads 0
Likes 0
Share VATSIM

Download

Looking for another format? Having issues loading an existing format? Contact us
Advertisement - Login to hide

Notes

Basic altitude profile: - Ascent Rate: 2500ft/min - Ascent Speed: 300kts - Cruise Altitude: 15000ft - Cruise Speed: 600kts - Descent Rate: 35000ft/min - Descent Speed: 200kts Options: - Use NATs: yes - Use PACOTS: yes - Use low airways: yes - Use high airways: yes

Route

LGAV ALANI LGSA

ID Type Via Altitude Latitude Longitude Leg Dist Tot Dist Heading (true) Name
O LGAV APT - 0 ft / 0 m 37.93636˚ 23.94447˚ - 0 nm - Athens Intl Airport Elefterios Venizel
ALANI FIX - 17,800 ft / 5,425 m 36.91111˚ 23.99167˚ 61 nm 61 nm 178° / 178° -
O LGSA APT - 0 ft / 0 m 35.53159˚ 24.15118˚ 83 nm 144 nm 175° / 175° Khania Souda

Altitude Profile

Advertisement - Login to hide

LGAV

Details ICAO LGAV (ATH)
Name Athens Intl Airport Elefterios Venizel
Region Greece
Timezone Europe/Athens (UTC+2.0)
Stats Elevation 308 ft / 94 m (AMSL)
Location 37.936357° 23.944470°
Runways 2
Magnetic Variation 4.485° E

METAR

LGAV 171320Z 23011KT 9999 DZ FEW025 BKN050 18/11 Q1009 NOSIG

Decode

TAF

TAF TAF LGAV 171100Z 1712/1812 24013KT 9999 SCT030 SCT070 PROB30 TEMPO 1712/1715 5000 RA SCT025 SCT070 BECMG 1803/1805 VRB05KT FEW020

Decode

Departure Runways

ID Width Length Bearing (true) Bearing (mag) Surface Threshold Offset Overrun Length
03L 148 ft / 45 m 12,474 ft / 3,802 m 36.51° 32.03° Asphalt 984 ft / 300 m 393 ft / 120 m
03R 148 ft / 45 m 13,131 ft / 4,002 m 36.52° 32.04° Asphalt 984 ft / 300 m 393 ft / 120 m
21L 148 ft / 45 m 13,131 ft / 4,002 m 216.54° 212.06° Asphalt 984 ft / 300 m 393 ft / 120 m
21R 148 ft / 45 m 12,474 ft / 3,802 m 216.53° 212.05° Asphalt 984 ft / 300 m 393 ft / 120 m

LGSA

Details ICAO LGSA (CHQ)
Name Khania Souda
Region Greece
Timezone Europe/Athens (UTC+2.0)
Stats Elevation 490 ft / 149 m (AMSL)
Location 35.531592° 24.151184°
Runways 1
Magnetic Variation 4.283° E

METAR

LGSA 171320Z 28017G27KT 9999 FEW025 SCT080 19/13 Q1012

Decode

TAF

TAF LGSA 171100Z 1712/1812 28017KT 9999 FEW025 SCT070 TEMPO 1712/1718 27016G26KT PROB30 TEMPO 1712/1718 5000 RA SCT020 SCT070

Decode

Destination Runways

ID Width Length Bearing (true) Bearing (mag) Surface Threshold Offset Overrun Length
11 148 ft / 45 m 10,967 ft / 3,343 m 111.40° 107.12° Asphalt 0 ft / 0 m 735 ft / 224 m
29 148 ft / 45 m 10,967 ft / 3,343 m 291.42° 287.14° Asphalt 0 ft / 0 m 900 ft / 274 m

Popular Alternatives